Time;durP1;ratioP1;P1;durP2;ratioP2;P2;SDS_P1;SDS_P2;PMS_P1;PMS_P2;Temp;Humidity;BMP_temperature;BMP_pressure;BME280_temperature;BME280_humidity;BME280_pressure;Samples;Min_cycle;Max_cycle;Signal;HPM_P1;HPM_P2
2022/11/22 00:01:03;;;;;;;26.85;16.20;;;;;;;3.55;100.00;99615.47;5076205;28;20020;-74
2022/11/22 00:03:29;;;;;;;32.22;15.55;;;;;;;3.47;100.00;99608.03;5078005;28;20115;-72
2022/11/22 00:05:55;;;;;;;23.33;15.82;;;;;;;3.28;100.00;99585.56;5075212;28;20767;-73
2022/11/22 00:08:24;;;;;;;21.00;14.30;;;;;;;3.41;100.00;99591.69;5076587;28;20028;-72
2022/11/22 00:10:50;;;;;;;23.95;14.00;;;;;;;3.45;100.00;99594.03;5084891;28;20028;-72
2022/11/22 00:13:22;;;;;;;21.02;14.13;;;;;;;3.30;100.00;99570.44;5074522;28;20024;-72
2022/11/22 00:16:02;;;;;;;22.05;13.85;;;;;;;3.48;100.00;99593.81;5076028;28;20106;-73
2022/11/22 00:18:28;;;;;;;19.20;13.15;;;;;;;3.52;100.00;99602.41;5075528;28;20032;-72
2022/11/22 00:20:54;;;;;;;19.27;13.38;;;;;;;3.54;100.00;99606.66;5076594;28;20040;-71
2022/11/22 00:23:20;;;;;;;19.98;13.63;;;;;;;3.46;100.00;99598.41;5075344;28;20046;-71
2022/11/22 00:25:45;;;;;;;18.05;13.25;;;;;;;3.51;100.00;99598.09;5083350;28;20603;-73
2022/11/22 00:28:11;;;;;;;23.30;14.25;;;;;;;3.48;100.00;99590.34;5080457;28;20025;-73
2022/11/22 00:30:36;;;;;;;22.58;14.38;;;;;;;3.45;100.00;99598.50;5076681;28;20016;-73
2022/11/22 00:33:02;;;;;;;20.98;14.88;;;;;;;3.45;100.00;99595.84;5081108;28;20513;-73
2022/11/22 00:35:27;;;;;;;22.52;15.82;;;;;;;3.44;100.00;99596.78;5081828;28;20028;-72
2022/11/22 00:37:52;;;;;;;26.63;15.77;;;;;;;3.42;100.00;99591.59;5082237;28;20119;-73
2022/11/22 00:40:18;;;;;;;25.52;15.68;;;;;;;3.44;100.00;99587.06;5078190;28;20059;-72
2022/11/22 00:42:43;;;;;;;25.98;16.70;;;;;;;3.46;100.00;99584.28;5077233;28;20020;-73
2022/11/22 00:45:09;;;;;;;28.35;16.40;;;;;;;3.45;100.00;99588.72;5071037;28;20028;-72
2022/11/22 00:47:34;;;;;;;29.23;17.98;;;;;;;3.42;100.00;99590.78;5081139;28;20028;-72
2022/11/22 00:50:00;;;;;;;28.67;18.00;;;;;;;3.39;100.00;99581.22;5074507;28;20024;-72
2022/11/22 00:52:25;;;;;;;30.33;17.45;;;;;;;3.41;100.00;99591.69;5074601;28;20017;-72
2022/11/22 00:54:51;;;;;;;26.33;18.10;;;;;;;3.34;100.00;99586.00;5075011;28;20142;-72
2022/11/22 00:57:16;;;;;;;24.05;16.38;;;;;;;3.40;100.00;99595.31;5071072;28;20029;-72
2022/11/22 00:59:41;;;;;;;25.00;16.52;;;;;;;3.35;100.00;99584.22;5079133;28;20017;-72
2022/11/22 01:02:07;;;;;;;23.17;16.13;;;;;;;3.46;100.00;99592.25;5081215;28;20024;-72
2022/11/22 01:04:32;;;;;;;23.02;15.30;;;;;;;3.38;100.00;99583.97;5073418;28;20039;-72
2022/11/22 01:06:58;;;;;;;22.35;15.70;;;;;;;3.36;100.00;99594.72;5071178;28;20029;-71
2022/11/22 01:09:24;;;;;;;23.30;16.23;;;;;;;3.33;100.00;99594.91;5076876;28;20081;-72
2022/11/22 01:11:50;;;;;;;21.98;15.43;;;;;;;3.38;100.00;99597.22;5076304;28;20066;-72
2022/11/22 01:14:16;;;;;;;25.23;14.73;;;;;;;3.33;100.00;99600.22;5084027;28;20032;-72
2022/11/22 01:16:42;;;;;;;28.10;17.08;;;;;;;3.27;100.00;99590.03;5078538;28;20024;-72
2022/11/22 01:19:08;;;;;;;25.10;16.05;;;;;;;3.39;100.00;99604.25;5079329;28;20103;-72
2022/11/22 01:21:34;;;;;;;29.63;17.27;;;;;;;3.32;100.00;99602.97;5075857;28;20186;-72
2022/11/22 01:23:59;;;;;;;27.08;16.98;;;;;;;3.33;100.00;99605.53;5078097;28;20042;-72
2022/11/22 01:26:25;;;;;;;27.70;16.95;;;;;;;3.21;100.00;99587.81;5069132;28;20032;-65
2022/11/22 01:28:50;;;;;;;26.13;17.02;;;;;;;3.27;100.00;99600.63;5082417;28;20031;-65
2022/11/22 01:31:16;;;;;;;25.42;17.65;;;;;;;3.28;100.00;99604.97;5080871;28;20028;-65
2022/11/22 01:33:41;;;;;;;25.90;18.63;;;;;;;3.13;100.00;99574.22;5081394;28;20032;-65
2022/11/22 01:36:07;;;;;;;23.67;17.05;;;;;;;3.17;100.00;99588.13;5079464;28;20183;-65
2022/11/22 01:38:32;;;;;;;28.27;17.85;;;;;;;3.14;100.00;99589.19;5076552;28;20020;-65
2022/11/22 01:40:58;;;;;;;27.10;17.95;;;;;;;3.19;100.00;99589.72;5077563;28;20552;-65
2022/11/22 01:43:25;;;;;;;26.08;16.30;;;;;;;3.17;100.00;99589.00;5083752;28;20494;-65
2022/11/22 01:45:53;;;;;;;24.15;16.35;;;;;;;3.13;100.00;99576.06;5080789;28;20417;-65
2022/11/22 01:48:41;;;;;;;26.27;17.40;;;;;;;2.99;100.00;99563.75;5069916;28;20024;-65
2022/11/22 01:51:42;;;;;;;26.50;17.20;;;;;;;3.02;100.00;99571.50;5079482;28;20512;-65
2022/11/22 01:54:14;;;;;;;26.67;18.20;;;;;;;3.03;100.00;99581.13;5068576;28;20032;-65
2022/11/22 01:56:43;;;;;;;28.13;17.92;;;;;;;2.54;100.00;99500.72;5072986;28;20144;-65
2022/11/22 01:59:15;;;;;;;27.75;19.10;;;;;;;2.98;100.00;99580.63;5066120;28;20032;-65
2022/11/22 02:01:41;;;;;;;25.30;17.50;;;;;;;3.02;100.00;99591.81;5069032;28;20024;-65
2022/11/22 02:04:09;;;;;;;24.70;17.55;;;;;;;2.84;100.00;99567.44;5075070;28;20069;-66
2022/11/22 02:06:56;;;;;;;27.23;17.45;;;;;;;2.97;100.00;99589.47;5070279;28;20040;-65
2022/11/22 02:09:22;;;;;;;25.75;16.88;;;;;;;2.92;100.00;99580.16;5081938;28;20039;-63
2022/11/22 02:11:52;;;;;;;28.00;18.20;;;;;;;2.87;100.00;99569.06;5087788;28;20206;-64
2022/11/22 02:14:23;;;;;;;28.60;17.83;;;;;;;2.96;100.00;99584.31;5078214;28;20434;-64
2022/11/22 02:16:48;;;;;;;24.85;17.55;;;;;;;2.92;100.00;99582.81;5069983;28;20028;-64
2022/11/22 02:19:22;;;;;;;24.58;16.73;;;;;;;2.91;100.00;99568.75;5085789;28;20093;-64
2022/11/22 02:21:55;;;;;;;25.08;17.08;;;;;;;2.91;100.00;99579.34;5088904;28;20016;-65
2022/11/22 02:24:34;;;;;;;26.15;17.25;;;;;;;2.88;100.00;99568.97;5077216;28;20078;-64
2022/11/22 02:27:01;;;;;;;26.92;18.33;;;;;;;2.82;100.00;99560.56;5075398;28;20170;-64
2022/11/22 02:29:27;;;;;;;25.00;16.90;;;;;;;2.79;100.00;99558.13;5068074;28;20177;-64
2022/11/22 02:31:52;;;;;;;25.92;18.30;;;;;;;2.67;100.00;99543.94;5069764;28;20108;-65
2022/11/22 02:34:18;;;;;;;29.52;19.63;;;;;;;2.76;100.00;99568.94;5074408;28;20097;-64
2022/11/22 02:36:50;;;;;;;31.67;20.65;;;;;;;2.79;100.00;99566.94;5080274;28;20035;-64
2022/11/22 02:39:25;;;;;;;33.85;21.30;;;;;;;2.78;100.00;99567.91;5077528;28;20031;-64
2022/11/22 02:41:50;;;;;;;28.38;17.80;;;;;;;2.80;100.00;99565.97;5077418;28;20031;-64
2022/11/22 02:44:18;;;;;;;36.30;20.95;;;;;;;2.76;100.00;99551.25;5069096;28;20033;-64
2022/11/22 02:46:52;;;;;;;34.38;18.85;;;;;;;2.75;100.00;99552.22;5072175;28;20086;-64
2022/11/22 02:49:20;;;;;;;31.83;20.45;;;;;;;2.74;100.00;99552.31;5072063;28;20028;-64
2022/11/22 02:51:46;;;;;;;38.08;20.55;;;;;;;2.61;100.00;99538.22;5084476;28;20722;-64
2022/11/22 02:54:11;;;;;;;37.40;21.27;;;;;;;2.75;100.00;99554.88;5070610;28;20028;-65
2022/11/22 02:56:37;;;;;;;33.00;21.02;;;;;;;2.54;100.00;99521.91;5068559;28;20437;-65
2022/11/22 02:59:02;;;;;;;35.10;22.13;;;;;;;2.72;100.00;99552.44;5073815;28;20153;-65
2022/11/22 03:01:28;;;;;;;34.83;20.20;;;;;;;2.78;100.00;99559.09;5073891;28;20040;-65
2022/11/22 03:03:54;;;;;;;30.00;18.58;;;;;;;2.68;100.00;99543.00;5084190;28;20108;-65
2022/11/22 03:06:19;;;;;;;30.65;19.02;;;;;;;2.66;100.00;99541.38;5084280;28;20119;-65
2022/11/22 03:08:47;;;;;;;30.67;18.30;;;;;;;2.69;100.00;99536.75;5070776;28;20029;-66
2022/11/22 03:11:13;;;;;;;32.83;19.33;;;;;;;2.57;100.00;99527.00;5082611;28;20039;-65
2022/11/22 03:13:38;;;;;;;33.00;19.88;;;;;;;2.58;100.00;99530.50;5079145;28;20032;-65
2022/11/22 03:16:04;;;;;;;33.55;19.70;;;;;;;2.64;100.00;99530.91;5080670;28;20024;-65
2022/11/22 03:18:31;;;;;;;37.63;20.98;;;;;;;2.66;100.00;99538.75;5080377;28;20472;-65
2022/11/22 03:21:02;;;;;;;30.67;18.98;;;;;;;2.16;100.00;99454.88;5072483;28;20031;-66
2022/11/22 03:23:28;;;;;;;31.55;19.10;;;;;;;2.64;100.00;99540.66;5069352;28;20024;-66
2022/11/22 03:25:53;;;;;;;30.98;18.75;;;;;;;2.57;100.00;99536.75;5077888;28;20052;-65
2022/11/22 03:28:19;;;;;;;30.77;19.00;;;;;;;2.50;100.00;99517.78;5071154;28;20502;-67
2022/11/22 03:30:44;;;;;;;32.90;18.77;;;;;;;2.55;100.00;99533.34;5080412;28;20026;-65
2022/11/22 03:33:09;;;;;;;30.65;19.20;;;;;;;2.56;100.00;99533.25;5083169;28;20036;-65
2022/11/22 03:35:35;;;;;;;31.92;19.58;;;;;;;2.47;100.00;99530.34;5083878;28;20044;-65
2022/11/22 03:38:01;;;;;;;31.73;20.17;;;;;;;2.56;100.00;99529.72;5081993;28;20034;-65
2022/11/22 03:40:26;;;;;;;34.90;19.67;;;;;;;2.51;100.00;99523.94;5073695;28;20032;-65
2022/11/22 03:42:51;;;;;;;30.88;19.20;;;;;;;2.45;100.00;99517.22;5076898;28;20027;-72
2022/11/22 03:45:17;;;;;;;34.42;18.65;;;;;;;2.49;100.00;99533.75;5070378;28;20089;-72
2022/11/22 03:47:42;;;;;;;33.15;17.70;;;;;;;2.51;100.00;99519.47;5076281;28;20100;-72
2022/11/22 03:50:08;;;;;;;29.13;17.40;;;;;;;2.52;100.00;99533.56;5069764;28;20048;-72
2022/11/22 03:52:33;;;;;;;29.52;18.33;;;;;;;2.52;100.00;99520.31;5082203;28;20680;-72
2022/11/22 03:54:59;;;;;;;29.13;17.63;;;;;;;2.54;100.00;99521.91;5077413;28;20028;-72
2022/11/22 03:57:24;;;;;;;26.58;15.98;;;;;;;2.48;100.00;99524.94;5076644;28;20032;-72
2022/11/22 03:59:50;;;;;;;25.98;16.77;;;;;;;2.45;100.00;99513.75;5083293;28;20032;-72
2022/11/22 04:02:15;;;;;;;29.27;17.33;;;;;;;2.46;100.00;99515.44;5080595;28;20081;-72
2022/11/22 04:04:41;;;;;;;27.42;16.13;;;;;;;2.53;100.00;99533.44;5079950;28;20032;-72
2022/11/22 04:07:07;;;;;;;28.10;17.17;;;;;;;2.53;100.00;99532.59;5075739;28;20026;-72
2022/11/22 04:09:32;;;;;;;28.10;17.52;;;;;;;2.46;100.00;99520.72;5078626;28;20020;-72
2022/11/22 04:11:57;;;;;;;29.52;16.58;;;;;;;2.57;100.00;99539.38;5081006;28;20581;-73
2022/11/22 04:17:07;;;;;;;30.83;16.95;;;;;;;2.55;100.00;99530.69;5071031;28;20035;-72
2022/11/22 04:19:32;;;;;;;26.48;16.90;;;;;;;2.55;100.00;99536.00;5080675;28;20028;-72
2022/11/22 04:21:57;;;;;;;22.73;15.45;;;;;;;2.59;100.00;99527.75;5071571;28;20540;-72
2022/11/22 04:27:07;;;;;;;24.58;14.30;;;;;;;2.43;100.00;99512.03;5078260;28;20108;-72
2022/11/22 04:29:32;;;;;;;27.25;16.20;;;;;;;2.55;100.00;99536.84;5073942;28;20111;-73
2022/11/22 04:34:41;;;;;;;23.92;15.38;;;;;;;2.52;100.00;99520.31;5079496;28;20502;-72
2022/11/22 04:37:07;;;;;;;26.73;16.38;;;;;;;2.49;100.00;99515.22;5076971;28;20032;-73
2022/11/22 04:39:33;;;;;;;25.73;15.60;;;;;;;2.52;100.00;99525.63;5074173;28;20556;-65
2022/11/22 04:44:43;;;;;;;;;;;;;;;2.51;100.00;99529.22;5083838;28;20089;-65
2022/11/22 04:47:10;;;;;;;25.33;15.05;;;;;;;2.53;100.00;99524.66;5069607;28;20327;-65
2022/11/22 04:49:36;;;;;;;29.13;17.08;;;;;;;2.60;100.00;99523.28;5078009;28;20099;-65
2022/11/22 04:54:47;;;;;;;33.67;17.70;;;;;;;2.59;100.00;99521.59;5081462;28;20541;-65
2022/11/22 04:57:12;;;;;;;29.20;17.17;;;;;;;2.59;100.00;99526.88;5085987;28;20040;-65
2022/11/22 04:59:38;;;;;;;31.75;18.17;;;;;;;2.62;100.00;99522.25;5076196;28;20036;-65
2022/11/22 05:02:03;;;;;;;32.33;18.50;;;;;;;2.55;100.00;99505.09;5082184;28;20027;-65
2022/11/22 05:04:28;;;;;;;32.83;17.85;;;;;;;2.64;100.00;99511.56;5075085;28;20080;-66
2022/11/22 05:06:55;;;;;;;29.70;16.90;;;;;;;2.63;100.00;99512.47;5069376;28;20108;-65
2022/11/22 05:09:21;;;;;;;33.80;17.20;;;;;;;2.65;100.00;99514.09;5074561;28;20085;-65
2022/11/22 05:11:47;;;;;;;32.40;18.55;;;;;;;2.65;100.00;99505.28;5078769;28;20413;-65
2022/11/22 05:14:12;;;;;;;35.20;18.83;;;;;;;2.71;100.00;99518.94;5079436;28;20487;-72
2022/11/22 05:16:38;;;;;;;33.88;19.17;;;;;;;2.67;100.00;99528.06;5077400;28;20135;-72
2022/11/22 05:19:03;;;;;;;36.47;20.17;;;;;;;2.70;100.00;99534.97;5074085;28;20036;-73
2022/11/22 05:21:29;;;;;;;41.00;19.75;;;;;;;2.71;100.00;99534.00;5075203;28;20039;-73
2022/11/22 05:23:55;;;;;;;37.80;20.40;;;;;;;2.62;100.00;99505.50;5079060;28;20048;-72
2022/11/22 05:26:26;;;;;;;33.35;20.00;;;;;;;2.70;100.00;99530.50;5074698;28;20013;-72
2022/11/22 05:28:53;;;;;;;40.28;21.35;;;;;;;2.73;100.00;99518.84;5078289;28;20031;-72
2022/11/22 05:31:23;;;;;;;40.30;21.50;;;;;;;2.78;100.00;99532.63;5081216;28;20035;-72
2022/11/22 05:33:54;;;;;;;44.53;21.70;;;;;;;2.81;100.00;99530.63;5078346;28;20503;-72
2022/11/22 05:36:20;;;;;;;46.00;22.15;;;;;;;2.87;100.00;99535.47;5074807;28;20032;-72
2022/11/22 05:38:46;;;;;;;43.33;22.95;;;;;;;2.89;100.00;99538.88;5073599;28;20016;-72
2022/11/22 05:41:13;;;;;;;52.22;23.95;;;;;;;2.89;100.00;99549.47;5076235;28;20514;-72
2022/11/22 05:43:39;;;;;;;52.50;24.60;;;;;;;2.82;100.00;99534.97;5074140;28;20035;-72
2022/11/22 05:46:17;;;;;;;49.63;22.80;;;;;;;2.96;100.00;99549.91;5083024;28;20031;-71
2022/11/22 05:48:44;;;;;;;49.95;23.65;;;;;;;3.01;100.00;99553.06;5070392;28;20032;-72
2022/11/22 05:51:12;;;;;;;45.13;23.95;;;;;;;2.95;100.00;99519.06;5075114;28;20495;-72
2022/11/22 05:53:39;;;;;;;51.53;25.88;;;;;;;2.98;100.00;99497.66;5074455;28;20062;-72
2022/11/22 05:56:10;;;;;;;52.00;27.35;;;;;;;3.08;100.00;99511.94;5073198;28;20539;-72
2022/11/22 05:58:36;;;;;;;52.60;24.95;;;;;;;3.14;100.00;99519.47;5075393;28;20032;-72
2022/11/22 06:01:11;;;;;;;54.20;26.67;;;;;;;3.17;100.00;99517.47;5074186;28;20028;-72
2022/11/22 06:03:37;;;;;;;54.95;25.20;;;;;;;3.20;100.00;99508.44;5073792;28;20032;-71
2022/11/22 06:06:04;;;;;;;49.72;24.38;;;;;;;3.33;100.00;99520.72;5072968;28;20024;-72
2022/11/22 06:08:32;;;;;;;44.78;23.02;;;;;;;3.28;100.00;99519.34;5083601;28;20431;-72
2022/11/22 06:11:09;;;;;;;56.30;26.55;;;;;;;3.38;100.00;99526.53;5071736;28;20681;-71
2022/11/22 06:13:40;;;;;;;49.53;22.77;;;;;;;3.33;100.00;99514.56;5071038;28;20138;-72
2022/11/22 06:16:08;;;;;;;45.95;23.20;;;;;;;3.32;100.00;99519.00;5076971;28;20028;-72
2022/11/22 06:18:34;;;;;;;53.13;23.98;;;;;;;3.31;100.00;99512.03;5072509;28;20120;-74
2022/11/22 06:21:01;;;;;;;45.85;24.00;;;;;;;3.35;100.00;99508.19;5071579;28;20060;-72
2022/11/22 06:23:27;;;;;;;45.60;23.67;;;;;;;3.40;100.00;99505.22;5073860;28;20384;-72
2022/11/22 06:26:00;;;;;;;49.35;24.58;;;;;;;3.36;100.00;99509.91;5074499;28;20085;-72
2022/11/22 06:28:28;;;;;;;56.27;25.03;;;;;;;3.40;100.00;99513.16;5076804;28;20104;-72
2022/11/22 06:30:53;;;;;;;49.85;23.98;;;;;;;3.45;100.00;99519.81;5080436;28;20127;-73
2022/11/22 06:33:19;;;;;;;47.60;23.42;;;;;;;3.43;100.00;99494.41;5083559;28;20159;-73
2022/11/22 06:35:45;;;;;;;48.20;24.55;;;;;;;3.51;100.00;99513.25;5078379;28;20487;-65
2022/11/22 06:38:10;;;;;;;51.10;25.35;;;;;;;3.50;100.00;99503.59;5078821;28;20048;-65
2022/11/22 06:40:35;;;;;;;47.58;25.83;;;;;;;3.54;100.00;99503.28;5067975;28;20044;-65
2022/11/22 06:43:01;;;;;;;50.92;24.92;;;;;;;3.63;100.00;99509.72;5079864;28;20032;-65
2022/11/22 06:45:26;;;;;;;48.53;23.83;;;;;;;3.54;100.00;99494.47;5077942;28;20028;-66
2022/11/22 06:47:52;;;;;;;48.10;24.33;;;;;;;3.60;100.00;99509.94;5083044;28;20581;-65
2022/11/22 06:50:17;;;;;;;49.08;23.77;;;;;;;3.76;100.00;99502.56;5077395;28;20036;-65
2022/11/22 06:52:42;;;;;;;48.97;25.80;;;;;;;3.68;100.00;99504.94;5071734;28;20032;-65
2022/11/22 06:55:08;;;;;;;46.53;24.58;;;;;;;3.67;100.00;99503.22;5075258;28;20044;-66
2022/11/22 06:57:33;;;;;;;48.00;23.33;;;;;;;3.64;100.00;99503.47;5083938;28;20438;-65
2022/11/22 06:59:59;;;;;;;50.40;25.13;;;;;;;3.65;100.00;99494.56;5085972;28;20521;-65
2022/11/22 07:02:24;;;;;;;40.80;22.88;;;;;;;3.69;100.00;99501.31;5072970;28;20428;-64
2022/11/22 07:04:50;;;;;;;48.08;24.77;;;;;;;3.59;100.00;99481.72;5077481;28;20510;-65
2022/11/22 07:07:15;;;;;;;46.17;23.80;;;;;;;3.79;100.00;99502.34;5077057;28;20036;-65
2022/11/22 07:09:41;;;;;;;45.30;23.75;;;;;;;3.73;100.00;99498.34;5071119;28;20024;-65
2022/11/22 07:12:06;;;;;;;48.83;24.42;;;;;;;3.77;100.00;99498.97;5084890;28;20046;-65
2022/11/22 07:14:31;;;;;;;45.20;24.17;;;;;;;3.80;100.00;99490.75;5075760;28;20037;-67
2022/11/22 07:16:57;;;;;;;48.20;25.20;;;;;;;3.85;100.00;99486.84;5080498;28;20036;-72
2022/11/22 07:19:22;;;;;;;48.83;25.25;;;;;;;4.02;100.00;99510.28;5080483;28;20073;-72
2022/11/22 07:21:48;;;;;;;49.05;25.73;;;;;;;4.03;100.00;99514.63;5078250;28;20036;-72
2022/11/22 07:24:14;;;;;;;46.63;24.48;;;;;;;4.08;100.00;99507.19;5078132;28;20032;-73
2022/11/22 07:26:39;;;;;;;46.15;23.88;;;;;;;4.12;100.00;99519.25;5086095;28;20024;-73
2022/11/22 07:29:05;;;;;;;48.30;25.50;;;;;;;4.14;100.00;99497.94;5076474;28;20216;-72
2022/11/22 07:31:30;;;;;;;47.65;24.08;;;;;;;4.24;100.00;99507.75;5075581;28;20391;-72
2022/11/22 07:33:57;;;;;;;39.20;22.88;;;;;;;4.23;100.00;99507.84;5078735;28;20032;-73
2022/11/22 07:36:22;;;;;;;47.47;24.15;;;;;;;4.17;100.00;99490.59;5077271;28;20025;-72
2022/11/22 07:38:48;;;;;;;48.85;23.95;;;;;;;4.29;100.00;99513.53;5076406;28;20040;-72
2022/11/22 07:41:15;;;;;;;46.80;24.30;;;;;;;4.34;100.00;99511.41;5077323;28;20039;-73
2022/11/22 07:43:41;;;;;;;47.80;24.88;;;;;;;4.39;100.00;99508.41;5079829;28;20037;-73
2022/11/22 07:46:29;;;;;;;43.60;23.92;;;;;;;4.51;100.00;99499.47;5073580;28;20025;-74
2022/11/22 07:49:00;;;;;;;50.35;25.63;;;;;;;4.49;100.00;99496.13;5079459;28;20032;-73
2022/11/22 07:51:26;;;;;;;48.80;23.90;;;;;;;4.58;100.00;99490.13;5077643;28;20758;-73
2022/11/22 07:53:51;;;;;;;45.63;24.80;;;;;;;4.59;100.00;99483.84;5074891;28;20036;-73
2022/11/22 07:56:17;;;;;;;43.67;22.60;;;;;;;4.70;100.00;99491.81;5079514;28;20052;-73
2022/11/22 07:58:42;;;;;;;42.95;23.25;;;;;;;4.64;100.00;99471.03;5077305;28;20388;-73
2022/11/22 08:01:10;;;;;;;42.17;24.38;;;;;;;4.75;100.00;99479.03;5073876;28;20043;-72
2022/11/22 08:03:37;;;;;;;42.15;23.55;;;;;;;4.92;100.00;99470.59;5070194;28;22480;-72
2022/11/22 08:06:05;;;;;;;39.03;23.13;;;;;;;4.89;100.00;99464.66;5080515;28;20031;-73
2022/11/22 08:08:31;;;;;;;47.60;25.17;;;;;;;5.00;100.00;99478.78;5081505;28;20020;-74
2022/11/22 08:10:56;;;;;;;46.35;24.83;;;;;;;5.04;100.00;99464.31;5084198;28;20024;-73
2022/11/22 08:13:22;;;;;;;47.53;25.17;;;;;;;5.04;100.00;99450.19;5081078;28;20036;-73
2022/11/22 08:15:48;;;;;;;48.50;28.25;;;;;;;5.11;100.00;99454.91;5079980;28;20032;-72
2022/11/22 08:18:14;;;;;;;44.17;26.00;;;;;;;5.15;100.00;99456.34;5074471;28;20036;-72
2022/11/22 08:20:40;;;;;;;42.95;24.45;;;;;;;5.43;100.00;99460.28;5071046;28;20036;-73
2022/11/22 08:23:05;;;;;;;45.00;23.83;;;;;;;5.47;100.00;99457.25;5075032;28;20028;-73
2022/11/22 08:25:31;;;;;;;38.13;22.30;;;;;;;5.41;100.00;99439.13;5075587;28;20469;-72
2022/11/22 08:27:56;;;;;;;39.58;22.83;;;;;;;5.49;100.00;99454.47;5078981;28;20022;-72
2022/11/22 08:30:22;;;;;;;42.17;22.70;;;;;;;5.47;100.00;99436.00;5074486;28;20048;-72
2022/11/22 08:32:47;;;;;;;43.92;22.77;;;;;;;5.67;100.00;99450.34;5076471;28;20055;-72
2022/11/22 08:35:13;;;;;;;40.25;23.00;;;;;;;5.73;100.00;99442.69;5077561;28;20040;-72
2022/11/22 08:37:38;;;;;;;40.33;22.65;;;;;;;5.74;100.00;99439.06;5078406;28;20035;-72
2022/11/22 08:40:04;;;;;;;45.95;25.27;;;;;;;5.77;100.00;99427.34;5078561;28;20027;-73
2022/11/22 08:42:30;;;;;;;44.58;24.55;;;;;;;5.79;100.00;99431.56;5075947;28;20488;-73
2022/11/22 08:44:55;;;;;;;43.22;25.88;;;;;;;5.94;100.00;99437.47;5076338;28;20028;-73
2022/11/22 08:47:21;;;;;;;48.63;28.98;;;;;;;5.96;100.00;99451.47;5076180;28;20067;-73
2022/11/22 08:49:46;;;;;;;60.08;34.53;;;;;;;6.05;100.00;99440.91;5081736;28;20016;-73
2022/11/22 08:52:12;;;;;;;66.00;35.83;;;;;;;6.07;100.00;99446.09;5074642;28;20093;-72
2022/11/22 08:54:38;;;;;;;65.10;36.83;;;;;;;6.11;100.00;99448.38;5075578;28;20038;-73
2022/11/22 08:57:03;;;;;;;63.90;37.15;;;;;;;6.10;100.00;99436.03;5076995;28;20495;-73
2022/11/22 08:59:29;;;;;;;53.38;30.70;;;;;;;6.22;100.00;99450.13;5070143;28;20482;-65
2022/11/22 09:01:54;;;;;;;49.33;28.90;;;;;;;6.28;100.00;99444.28;5080214;28;20475;-66
2022/11/22 09:04:19;;;;;;;41.97;26.35;;;;;;;6.28;100.00;99423.84;5083155;28;20468;-66
2022/11/22 09:06:45;;;;;;;41.50;25.92;;;;;;;6.33;100.00;99431.47;5077141;28;20016;-66
2022/11/22 09:09:10;;;;;;;42.22;25.48;;;;;;;6.35;100.00;99430.34;5083464;28;20040;-66
2022/11/22 09:11:36;;;;;;;37.42;24.30;;;;;;;6.39;100.00;99428.28;5076364;28;20028;-66
2022/11/22 09:14:01;;;;;;;41.67;25.10;;;;;;;6.52;100.00;99426.25;5069280;28;20426;-66
2022/11/22 09:16:29;;;;;;;35.65;22.83;;;;;;;6.49;100.00;99426.53;5070879;28;20092;-64
2022/11/22 09:18:55;;;;;;;38.63;24.15;;;;;;;6.55;100.00;99421.50;5069019;28;20428;-65
2022/11/22 09:21:21;;;;;;;42.38;24.63;;;;;;;6.62;100.00;99429.81;5071622;28;20056;-65
2022/11/22 09:23:49;;;;;;;35.53;22.42;;;;;;;6.69;100.00;99413.19;5086499;28;20032;-65
2022/11/22 09:26:18;;;;;;;35.60;22.40;;;;;;;6.69;100.00;99423.84;5076403;28;20040;-65
2022/11/22 09:28:44;;;;;;;36.65;21.15;;;;;;;6.74;100.00;99416.28;5077717;28;20033;-66
2022/11/22 09:31:16;;;;;;;34.20;20.98;;;;;;;6.73;100.00;99414.59;5072148;28;20052;-67
2022/11/22 09:33:45;;;;;;;37.05;20.83;;;;;;;6.90;100.00;99423.78;5072269;28;20027;-66
2022/11/22 09:36:31;;;;;;;31.05;19.55;;;;;;;6.87;100.00;99419.56;5082737;28;20031;-64
2022/11/22 09:38:56;;;;;;;31.70;21.80;;;;;;;6.73;100.00;99379.97;5069168;28;20044;-65
2022/11/22 09:41:34;;;;;;;33.88;20.83;;;;;;;6.92;100.00;99390.72;5068882;28;20024;-65
2022/11/22 09:44:26;;;;;;;31.50;20.65;;;;;;;6.95;100.00;99390.44;5082961;28;20170;-65
2022/11/22 09:47:15;;;;;;;29.55;19.10;;;;;;;6.87;100.00;99370.78;5073246;28;20047;-66
2022/11/22 09:49:56;;;;;;;29.33;19.65;;;;;;;7.02;100.00;99398.72;5083995;28;20391;-66
2022/11/22 09:52:34;;;;;;;30.33;19.45;;;;;;;7.14;100.00;99386.13;5066216;28;20035;-66
2022/11/22 09:55:22;;;;;;;29.73;19.30;;;;;;;7.05;100.00;99371.78;5080726;28;20043;-65
2022/11/22 09:57:55;;;;;;;31.10;18.85;;;;;;;7.15;100.00;99372.66;5074954;28;20070;-66
2022/11/22 10:00:23;;;;;;;31.35;19.50;;;;;;;7.29;100.00;99387.44;5081463;28;20032;-67
2022/11/22 10:02:55;;;;;;;28.55;19.00;;;;;;;7.33;100.00;99373.72;5083627;28;20480;-65
2022/11/22 10:05:25;;;;;;;29.25;18.63;;;;;;;7.34;100.00;99362.03;5071308;28;20547;-64
2022/11/22 10:08:00;;;;;;;28.90;19.23;;;;;;;7.42;100.00;99364.03;5084956;28;20463;-65
2022/11/22 10:10:40;;;;;;;30.55;19.08;;;;;;;7.51;100.00;99352.53;5078757;28;20035;-65
2022/11/22 10:13:16;;;;;;;28.02;17.95;;;;;;;7.47;100.00;99333.28;5075804;28;20035;-65
2022/11/22 10:16:19;;;;;;;26.63;17.65;;;;;;;7.64;100.00;99363.78;5078511;28;20498;-65
2022/11/22 10:19:13;;;;;;;24.02;15.80;;;;;;;7.65;100.00;99363.66;5036436;28;20048;-65
2022/11/22 10:21:38;;;;;;;26.90;16.30;;;;;;;7.62;100.00;99344.38;5065918;28;20495;-65
2022/11/22 10:24:04;;;;;;;25.67;16.27;;;;;;;7.72;100.00;99361.25;5083735;28;20036;-65
2022/11/22 10:26:32;;;;;;;27.85;16.10;;;;;;;7.78;100.00;99355.34;5077905;28;20031;-66
2022/11/22 10:29:12;;;;;;;25.45;16.98;;;;;;;7.77;100.00;99351.81;5072565;28;20425;-66
2022/11/22 10:31:59;;;;;;;22.98;15.80;;;;;;;7.83;100.00;99345.09;5075425;28;20020;-72
2022/11/22 10:34:37;;;;;;;24.10;15.88;;;;;;;7.87;99.87;99341.16;5077872;28;20028;-72
2022/11/22 10:37:17;;;;;;;25.00;16.17;;;;;;;7.93;100.00;99332.59;5080822;28;20131;-73
2022/11/22 10:39:58;;;;;;;23.23;15.23;;;;;;;7.99;99.37;99337.34;5085106;28;20021;-73
2022/11/22 10:42:55;;;;;;;21.23;14.85;;;;;;;8.02;99.18;99332.56;5087627;28;20434;-74
2022/11/22 10:45:33;;;;;;;22.15;13.90;;;;;;;8.10;97.10;99324.66;5075131;28;20048;-73
2022/11/22 10:48:10;;;;;;;20.52;13.32;;;;;;;8.20;95.97;99311.31;5080271;28;20107;-74
2022/11/22 10:50:41;;;;;;;20.48;13.95;;;;;;;8.21;96.25;99310.31;5082149;28;20031;-72
2022/11/22 10:53:33;;;;;;;19.65;13.63;;;;;;;8.25;95.88;99306.41;5077671;28;20027;-72
2022/11/22 10:56:16;;;;;;;17.55;11.73;;;;;;;8.30;94.31;99305.00;5071086;28;20055;-73
2022/11/22 10:58:54;;;;;;;21.40;14.18;;;;;;;8.29;94.21;99297.13;5081692;28;20028;-73
2022/11/22 11:02:07;;;;;;;18.40;12.90;;;;;;;8.36;93.92;99288.41;5076388;28;20098;-72
2022/11/22 11:04:36;;;;;;;17.45;11.48;;;;;;;8.47;92.54;99277.53;5077789;28;20044;-72
2022/11/22 11:07:04;;;;;;;14.90;10.43;;;;;;;8.60;90.52;99270.00;5084173;28;20033;-73
2022/11/22 11:09:39;;;;;;;17.08;11.05;;;;;;;8.62;90.46;99272.53;5075260;28;20024;-74
2022/11/22 11:12:18;;;;;;;15.95;10.18;;;;;;;8.67;90.07;99264.91;5084377;28;20031;-72
2022/11/22 11:14:47;;;;;;;15.90;10.23;;;;;;;8.60;89.02;99245.09;5076349;28;20048;-72
2022/11/22 11:17:25;;;;;;;13.88;10.07;;;;;;;8.71;88.44;99248.41;5079561;28;20127;-73
2022/11/22 11:19:53;;;;;;;15.57;10.00;;;;;;;8.89;87.00;99251.97;5076181;28;20035;-72
2022/11/22 11:22:24;;;;;;;12.88;9.07;;;;;;;9.03;85.18;99239.94;5080442;28;20047;-72
2022/11/22 11:24:51;;;;;;;13.18;9.88;;;;;;;9.03;86.03;99237.28;5078575;28;20028;-72
2022/11/22 11:27:19;;;;;;;12.15;9.15;;;;;;;9.13;85.48;99240.72;5086232;28;20475;-73
2022/11/22 11:30:00;;;;;;;13.80;9.38;;;;;;;9.20;84.05;99225.72;5082742;28;20024;-73
2022/11/22 11:32:26;;;;;;;13.13;8.70;;;;;;;9.29;82.63;99225.63;5082800;28;20535;-73
2022/11/22 11:34:57;;;;;;;11.57;8.70;;;;;;;9.14;82.83;99204.94;5078665;28;20107;-73
2022/11/22 11:37:32;;;;;;;14.07;8.82;;;;;;;9.23;82.30;99204.03;5079957;28;20028;-71
2022/11/22 11:39:57;;;;;;;20.90;9.93;;;;;;;9.25;83.31;99202.03;5077540;28;20024;-72